createdAt,value
2019-04-22T00:01:25.268Z,100964.12
2019-04-22T00:04:00.276Z,100957.44
2019-04-22T00:06:44.312Z,100960.91
2019-04-22T00:09:19.127Z,100958.58
2019-04-22T00:11:53.112Z,100961.17
2019-04-22T00:14:24.906Z,100955.78
2019-04-22T00:17:00.764Z,100953.48
2019-04-22T00:19:47.033Z,100948.14
2019-04-22T00:22:03.311Z,100947.61
2019-04-22T00:24:30.767Z,100948.85
2019-04-22T00:27:03.919Z,100944.37
2019-04-22T00:29:50.087Z,100943.91
2019-04-22T00:32:04.965Z,100942.55
2019-04-22T00:34:42.667Z,100938.93
2019-04-22T00:37:17.230Z,100936.23
2019-04-22T00:39:46.401Z,100942.80
2019-04-22T00:42:24.652Z,100942.30
2019-04-22T00:44:51.768Z,100939.63
2019-04-22T00:47:29.080Z,100939.12
2019-04-22T00:50:12.679Z,100943.00
2019-04-22T00:52:22.354Z,100944.27
2019-04-22T00:55:04.154Z,100939.77
2019-04-22T00:57:29.611Z,100936.59
2019-04-22T00:59:58.583Z,100939.17
2019-04-22T01:02:34.200Z,100944.39
2019-04-22T01:05:01.304Z,100950.95
2019-04-22T01:07:30.400Z,100945.55
2019-04-22T01:10:06.671Z,100941.52
2019-04-22T01:12:39.532Z,100939.70
2019-04-22T01:15:07.073Z,100944.55
2019-04-22T01:17:39.947Z,100944.95
2019-04-22T01:20:17.575Z,100944.03
2019-04-22T01:22:38.252Z,100939.61
2019-04-22T01:25:09.775Z,100936.09
2019-04-22T01:27:41.844Z,100933.45
2019-04-22T01:30:08.433Z,100930.80
2019-04-22T01:32:32.818Z,100930.80
2019-04-22T01:35:14.328Z,100925.93
2019-04-22T01:37:52.579Z,100923.73
2019-04-22T01:40:32.864Z,100920.21
2019-04-22T01:43:03.824Z,100923.73
2019-04-22T01:45:36.313Z,100918.37
2019-04-22T01:47:55.380Z,100912.22
2019-04-22T01:50:30.671Z,100914.80
2019-04-22T01:53:06.256Z,100912.11
2019-04-22T01:55:41.838Z,100912.99
2019-04-22T01:58:00.109Z,100906.80
2019-04-22T02:00:39.602Z,100906.38
2019-04-22T02:03:12.724Z,100898.44
2019-04-22T02:05:37.623Z,100899.31
2019-04-22T02:08:16.620Z,100891.85
2019-04-22T02:10:49.349Z,100889.19
2019-04-22T02:13:17.101Z,100887.39
2019-04-22T02:15:47.767Z,100885.62
2019-04-22T02:20:48.600Z,100887.34
2019-04-22T02:26:03.829Z,100878.06
2019-04-22T02:34:01.833Z,100871.75
2019-04-22T02:36:22.738Z,100871.70
2019-04-22T02:41:23.014Z,100870.27
2019-04-22T02:59:09.583Z,100856.11
2019-04-22T03:01:33.120Z,100848.55
2019-04-22T03:04:06.902Z,100849.80
2019-04-22T03:06:32.853Z,100841.77
2019-04-22T03:09:08.911Z,100844.36
2019-04-22T03:14:01.430Z,100839.42
2019-04-22T03:16:41.261Z,100842.03
2019-04-22T03:19:29.885Z,100841.95
2019-04-22T03:21:31.760Z,100834.82
2019-04-22T03:24:17.497Z,100838.31
2019-04-22T03:29:04.883Z,100828.95
2019-04-22T03:42:05.721Z,100828.48
2019-04-22T03:47:10.970Z,100822.73
2019-04-22T03:54:45.771Z,100825.34
2019-04-22T04:02:17.828Z,100817.34
2019-04-22T04:04:39.303Z,100819.08
2019-04-22T04:07:20.749Z,100816.44
2019-04-22T04:12:13.935Z,100815.17
2019-04-22T04:17:23.159Z,100817.81
2019-04-22T04:22:32.308Z,100827.05
2019-04-22T04:30:14.898Z,100817.41
2019-04-22T04:37:42.378Z,100828.03
2019-04-22T04:47:44.181Z,100826.34
2019-04-22T04:53:01.878Z,100821.69
2019-04-22T04:55:17.682Z,100823.11
2019-04-22T04:57:43.538Z,100820.16
2019-04-22T05:02:44.615Z,100824.77
2019-04-22T05:05:12.801Z,100826.61
2019-04-22T05:07:40.933Z,100821.45
2019-04-22T05:12:53.554Z,100820.76
2019-04-22T05:20:27.329Z,100819.87
2019-04-22T05:22:46.094Z,100818.20
2019-04-22T05:25:28.491Z,100821.39
2019-04-22T05:27:45.434Z,100821.95
2019-04-22T05:32:49.155Z,100822.25
2019-04-22T05:35:23.147Z,100829.00
2019-04-22T05:37:56.516Z,100830.04
2019-04-22T05:40:24.316Z,100836.36
2019-04-22T05:42:55.996Z,100833.86
2019-04-22T05:47:57.855Z,100832.39
2019-04-22T05:50:27.001Z,100827.64
2019-04-22T05:52:57.305Z,100832.67
2019-04-22T05:58:07.183Z,100831.16
2019-04-22T06:03:12.350Z,100840.25
2019-04-22T06:05:35.930Z,100827.09
2019-04-22T06:08:13.341Z,100828.09
2019-04-22T06:10:45.639Z,100827.74
2019-04-22T06:13:11.170Z,100827.83
2019-04-22T06:15:38.926Z,100831.04
2019-04-22T06:18:25.588Z,100827.14
2019-04-22T06:20:59.451Z,100822.77
2019-04-22T06:23:26.211Z,100818.02
2019-04-22T06:31:03.677Z,100809.84
2019-04-22T06:33:34.661Z,100816.11
2019-04-22T06:36:03.703Z,100809.94
2019-04-22T06:38:35.646Z,100810.02
2019-04-22T06:41:08.976Z,100813.60
2019-04-22T06:46:08.405Z,100819.89
2019-04-22T06:48:49.136Z,100809.73
2019-04-22T06:51:17.483Z,100817.73
2019-04-22T06:53:41.141Z,100819.97
2019-04-22T06:56:16.172Z,100819.54
2019-04-22T06:58:50.611Z,100816.45
2019-04-22T07:03:53.506Z,100825.73
2019-04-22T07:06:23.990Z,100818.64
2019-04-22T07:09:13.930Z,100818.21
2019-04-22T07:11:19.850Z,100819.53
2019-04-22T07:13:57.095Z,100815.52
2019-04-22T07:16:25.092Z,100818.59
2019-04-22T07:18:56.863Z,100818.56
2019-04-22T07:21:27.455Z,100818.98
2019-04-22T07:24:17.844Z,100816.33
2019-04-22T07:26:25.247Z,100814.55
2019-04-22T07:28:58.213Z,100810.96
2019-04-22T07:31:28.604Z,100806.95
2019-04-22T07:34:08.128Z,100810.45
2019-04-22T07:36:45.574Z,100810.44
2019-04-22T07:39:05.563Z,100808.62
2019-04-22T07:41:39.985Z,100811.23
2019-04-22T07:44:13.417Z,100799.19
2019-04-22T07:46:41.503Z,100804.95
2019-04-22T07:49:16.593Z,100804.95
2019-04-22T07:54:16.421Z,100804.45
2019-04-22T07:56:43.942Z,100803.03
2019-04-22T07:59:18.703Z,100798.97
2019-04-22T08:01:41.824Z,100792.70
2019-04-22T08:04:23.183Z,100793.55
2019-04-22T08:06:51.569Z,100791.72
2019-04-22T08:14:22.471Z,100785.73
2019-04-22T08:17:00.998Z,100787.86
2019-04-22T08:21:59.860Z,100784.97
2019-04-22T08:24:29.301Z,100785.30
2019-04-22T08:26:59.316Z,100791.01
2019-04-22T08:29:37.188Z,100783.39
2019-04-22T08:32:02.723Z,100786.88
2019-04-22T08:34:32.081Z,100789.02
2019-04-22T08:37:37.081Z,100782.25
2019-04-22T08:39:34.536Z,100784.78
2019-04-22T08:42:13.667Z,100781.59
2019-04-22T08:49:50.175Z,100783.63
2019-04-22T08:52:16.510Z,100778.25
2019-04-22T08:54:44.992Z,100783.13
2019-04-22T08:57:18.272Z,100778.59
2019-04-22T08:59:48.655Z,100782.51
2019-04-22T09:02:20.480Z,100778.80
2019-04-22T09:04:52.156Z,100772.00
2019-04-22T09:07:28.313Z,100781.41
2019-04-22T09:09:50.658Z,100774.27
2019-04-22T09:12:26.511Z,100766.09
2019-04-22T09:15:03.944Z,100772.62
2019-04-22T09:19:54.578Z,100761.84
2019-04-22T09:22:24.753Z,100759.73
2019-04-22T09:24:57.279Z,100763.21
2019-04-22T09:27:37.002Z,100757.73
2019-04-22T09:29:59.685Z,100759.46
2019-04-22T09:32:34.842Z,100748.14
2019-04-22T09:35:03.441Z,100747.09
2019-04-22T09:37:40.767Z,100743.39
2019-04-22T09:40:15.623Z,100742.30
2019-04-22T09:42:48.736Z,100749.75
2019-04-22T09:45:10.167Z,100744.70
2019-04-22T09:47:49.096Z,100737.89
2019-04-22T09:50:16.001Z,100732.39
2019-04-22T09:52:48.909Z,100729.15
2019-04-22T09:55:18.237Z,100728.59
2019-04-22T09:57:46.050Z,100727.14
2019-04-22T10:00:13.949Z,100722.18
2019-04-22T10:02:55.421Z,100726.16
2019-04-22T10:05:21.167Z,100721.13
2019-04-22T10:07:54.492Z,100722.36
2019-04-22T10:10:18.877Z,100716.99
2019-04-22T10:12:54.092Z,100710.36
2019-04-22T10:15:26.724Z,100704.06
2019-04-22T10:18:02.890Z,100711.09
2019-04-22T10:20:36.352Z,100701.75
2019-04-22T10:23:05.620Z,100707.03
2019-04-22T10:25:35.143Z,100696.67
2019-04-22T10:28:15.080Z,100689.35
2019-04-22T10:30:48.869Z,100688.50
2019-04-22T10:33:05.775Z,100678.66
2019-04-22T10:35:20.962Z,100683.45
2019-04-22T10:37:50.238Z,100677.47
2019-04-22T10:40:29.120Z,100683.03
2019-04-22T10:42:59.126Z,100686.52
2019-04-22T10:45:30.241Z,100681.92
2019-04-22T10:48:01.438Z,100694.05
2019-04-22T10:50:39.702Z,100676.11
2019-04-22T10:53:11.181Z,100676.69
2019-04-22T10:55:43.430Z,100675.83
2019-04-22T10:58:12.999Z,100669.56
2019-04-22T11:00:45.198Z,100656.02
2019-04-22T11:03:16.252Z,100659.45
2019-04-22T11:05:46.346Z,100663.48
2019-04-22T11:08:26.068Z,100650.11
2019-04-22T11:11:00.638Z,100657.67
2019-04-22T11:13:20.130Z,100650.46
2019-04-22T11:15:52.941Z,100656.23
2019-04-22T11:18:23.234Z,100645.59
2019-04-22T11:20:53.578Z,100640.66
2019-04-22T11:23:24.595Z,100637.97
2019-04-22T11:25:54.263Z,100629.39
2019-04-22T11:28:23.803Z,100625.89
2019-04-22T11:30:54.840Z,100623.11
2019-04-22T11:33:24.693Z,100630.14
2019-04-22T11:35:55.499Z,100617.50
2019-04-22T11:38:25.138Z,100614.62
2019-04-22T11:40:57.472Z,100613.14
2019-04-22T11:43:28.342Z,100609.66
2019-04-22T11:45:59.649Z,100604.14
2019-04-22T11:48:29.400Z,100604.34
2019-04-22T11:51:00.129Z,100592.80
2019-04-22T11:53:30.934Z,100596.78
2019-04-22T11:56:00.694Z,100586.84
2019-04-22T11:58:30.759Z,100586.18
2019-04-22T12:01:01.163Z,100596.34
2019-04-22T12:03:31.661Z,100592.75
2019-04-22T12:06:02.095Z,100590.55
2019-04-22T12:08:31.692Z,100581.56
2019-04-22T12:11:04.373Z,100568.86
2019-04-22T12:13:33.708Z,100570.14
2019-04-22T12:16:03.466Z,100571.49
2019-04-22T12:18:33.351Z,100565.87
2019-04-22T12:21:03.548Z,100564.82
2019-04-22T12:23:34.847Z,100566.86
2019-04-22T12:26:10.872Z,100556.80
2019-04-22T12:28:37.053Z,100554.11
2019-04-22T12:31:06.928Z,100567.44
2019-04-22T12:33:37.122Z,100556.84
2019-04-22T12:36:08.638Z,100550.84
2019-04-22T12:38:39.770Z,100537.45
2019-04-22T12:41:11.999Z,100541.92
2019-04-22T12:43:41.072Z,100541.73
2019-04-22T12:46:12.076Z,100549.13
2019-04-22T12:48:43.245Z,100525.81
2019-04-22T12:51:13.275Z,100528.02
2019-04-22T12:53:44.558Z,100530.41
2019-04-22T12:56:15.419Z,100547.59
2019-04-22T12:58:45.792Z,100529.34
2019-04-22T13:01:15.408Z,100526.70
2019-04-22T13:03:46.484Z,100520.77
2019-04-22T13:06:17.604Z,100510.96
2019-04-22T13:08:47.773Z,100512.41
2019-04-22T13:11:21.356Z,100525.80
2019-04-22T13:13:49.368Z,100517.30
2019-04-22T13:16:20.594Z,100520.92
2019-04-22T13:18:57.608Z,100514.70
2019-04-22T13:21:22.756Z,100507.60
2019-04-22T13:23:53.109Z,100505.80
2019-04-22T13:26:23.154Z,100506.24
2019-04-22T13:28:54.754Z,100500.38
2019-04-22T13:31:24.531Z,100493.61
2019-04-22T13:33:57.200Z,100490.37
2019-04-22T13:36:27.670Z,100480.00
2019-04-22T13:38:58.604Z,100480.23
2019-04-22T13:41:39.794Z,100475.98
2019-04-22T13:44:01.838Z,100468.19
2019-04-22T13:46:33.621Z,100473.06
2019-04-22T13:49:37.796Z,100470.83
2019-04-22T13:52:02.398Z,100464.16
2019-04-22T13:56:55.403Z,100465.50
2019-04-22T13:59:18.313Z,100455.20
2019-04-22T14:01:46.412Z,100463.72
2019-04-22T14:04:20.584Z,100458.34
2019-04-22T14:06:50.158Z,100452.05
2019-04-22T14:09:20.439Z,100449.77
2019-04-22T14:11:57.785Z,100452.11
2019-04-22T14:14:22.139Z,100456.59
2019-04-22T14:16:53.212Z,100446.68
2019-04-22T14:19:23.749Z,100443.99
2019-04-22T14:21:53.772Z,100438.11
2019-04-22T14:24:23.769Z,100450.61
2019-04-22T14:27:08.738Z,100447.52
2019-04-22T14:29:25.860Z,100447.19
2019-04-22T14:32:06.960Z,100449.20
2019-04-22T14:34:28.377Z,100447.58
2019-04-22T14:36:59.308Z,100440.92
2019-04-22T14:39:30.220Z,100439.17
2019-04-22T14:42:20.407Z,100433.80
2019-04-22T14:45:18.839Z,100437.09
2019-04-22T14:47:26.373Z,100433.97
2019-04-22T14:49:55.990Z,100432.73
2019-04-22T14:52:31.439Z,100429.11
2019-04-22T14:54:50.813Z,100417.02
2019-04-22T14:57:07.469Z,100421.02
2019-04-22T14:59:37.780Z,100426.95
2019-04-22T15:02:07.660Z,100414.48
2019-04-22T15:04:39.289Z,100407.30
2019-04-22T15:07:08.978Z,100407.30
2019-04-22T15:09:39.900Z,100406.87
2019-04-22T15:12:18.571Z,100389.86
2019-04-22T15:14:41.683Z,100405.97
2019-04-22T15:17:13.121Z,100403.27
2019-04-22T15:19:45.573Z,100393.48
2019-04-22T15:22:16.767Z,100407.08
2019-04-22T15:24:46.978Z,100396.78
2019-04-22T15:27:16.465Z,100394.98
2019-04-22T15:29:47.330Z,100394.50
2019-04-22T15:32:17.623Z,100401.77
2019-04-22T15:34:47.208Z,100392.58
2019-04-22T15:37:17.826Z,100391.73
2019-04-22T15:39:47.919Z,100386.36
2019-04-22T15:42:22.840Z,100390.39
2019-04-22T15:44:51.577Z,100382.33
2019-04-22T15:47:22.858Z,100389.05
2019-04-22T15:49:53.903Z,100394.88
2019-04-22T15:52:33.312Z,100385.19
2019-04-22T15:54:56.298Z,100384.41
2019-04-22T15:57:26.653Z,100382.27
2019-04-22T16:00:12.089Z,100382.87
2019-04-22T16:02:27.919Z,100379.87
2019-04-22T16:04:58.805Z,100375.41
2019-04-22T16:07:29.742Z,100378.98
2019-04-22T16:09:59.669Z,100365.60
2019-04-22T16:12:37.699Z,100369.75
2019-04-22T16:15:03.091Z,100373.97
2019-04-22T16:17:32.789Z,100369.22
2019-04-22T16:20:03.693Z,100376.48
2019-04-22T16:22:36.986Z,100360.47
2019-04-22T16:25:11.281Z,100361.47
2019-04-22T16:27:42.611Z,100365.66
2019-04-22T16:30:13.298Z,100366.64
2019-04-22T16:32:43.522Z,100368.59
2019-04-22T16:35:14.515Z,100371.28
2019-04-22T16:37:44.362Z,100362.48
2019-04-22T16:40:14.682Z,100361.64
2019-04-22T16:42:52.771Z,100363.58
2019-04-22T16:45:19.869Z,100361.48
2019-04-22T16:47:49.567Z,100358.45
2019-04-22T16:50:20.640Z,100356.27
2019-04-22T16:52:50.317Z,100362.61
2019-04-22T16:55:21.066Z,100354.67
2019-04-22T16:57:50.628Z,100361.42
2019-04-22T17:00:20.664Z,100354.87
2019-04-22T17:03:08.790Z,100353.62
2019-04-22T17:05:56.846Z,100359.58
2019-04-22T17:08:26.708Z,100355.70
2019-04-22T17:10:56.153Z,100351.38
2019-04-22T17:13:30.260Z,100359.41
2019-04-22T17:15:59.075Z,100355.52
2019-04-22T17:18:28.086Z,100351.05
2019-04-22T17:20:58.476Z,100350.55
2019-04-22T17:23:29.564Z,100350.16
2019-04-22T17:26:00.666Z,100348.77
2019-04-22T17:28:31.287Z,100351.39
2019-04-22T17:31:01.903Z,100346.47
2019-04-22T17:33:32.713Z,100342.41
2019-04-22T17:36:03.346Z,100355.07
2019-04-22T17:38:42.828Z,100350.30
2019-04-22T17:41:17.219Z,100351.66
2019-04-22T17:43:59.204Z,100352.53
2019-04-22T17:46:32.407Z,100352.02
2019-04-22T17:49:26.718Z,100344.20
2019-04-22T17:52:15.670Z,100344.03
2019-04-22T17:54:43.052Z,100355.05
2019-04-22T17:57:12.331Z,100354.42
2019-04-22T17:59:45.211Z,100360.38
2019-04-22T18:02:13.385Z,100368.52
2019-04-22T18:04:33.943Z,100364.75
2019-04-22T18:07:24.830Z,100369.42
2019-04-22T18:10:16.227Z,100371.81
2019-04-22T18:12:27.238Z,100388.92
2019-04-22T18:14:59.518Z,100373.11
2019-04-22T18:17:25.428Z,100388.44
2019-04-22T18:19:51.818Z,100378.85
2019-04-22T18:22:19.821Z,100393.22
2019-04-22T18:24:54.137Z,100391.64
2019-04-22T18:27:40.196Z,100390.92
2019-04-22T18:29:55.793Z,100398.20
2019-04-22T18:32:25.679Z,100405.06
2019-04-22T18:34:53.133Z,100410.49
2019-04-22T18:37:37.877Z,100405.27
2019-04-22T18:40:02.228Z,100405.83
2019-04-22T18:42:34.841Z,100409.09
2019-04-22T18:45:26.043Z,100412.75
2019-04-22T18:47:38.730Z,100406.63
2019-04-22T18:50:08.610Z,100407.60
2019-04-22T18:53:15.989Z,100410.80
2019-04-22T18:55:38.831Z,100416.19
2019-04-22T19:00:52.735Z,100412.81
2019-04-22T19:03:27.719Z,100420.44
2019-04-22T19:06:27.585Z,100441.78
2019-04-22T19:08:55.673Z,100432.95
2019-04-22T19:11:16.607Z,100422.30
2019-04-22T19:14:03.748Z,100429.48
2019-04-22T19:16:31.023Z,100439.73
2019-04-22T19:19:18.418Z,100442.45
2019-04-22T19:21:44.517Z,100445.14
2019-04-22T19:23:54.345Z,100442.08
2019-04-22T19:26:41.001Z,100443.00
2019-04-22T19:29:03.817Z,100446.59
2019-04-22T19:31:28.551Z,100453.72
2019-04-22T19:34:03.017Z,100441.31
2019-04-22T19:36:40.918Z,100451.57
2019-04-22T19:39:08.011Z,100436.45
2019-04-22T19:41:45.431Z,100445.78
2019-04-22T19:44:13.223Z,100449.81
2019-04-22T19:46:55.745Z,100441.83
2019-04-22T19:49:29.118Z,100443.63
2019-04-22T19:51:57.287Z,100441.40
2019-04-22T19:54:19.248Z,100446.77
2019-04-22T19:56:40.323Z,100448.56
2019-04-22T19:59:14.958Z,100440.16
2019-04-22T20:01:55.359Z,100426.00
2019-04-22T20:04:37.711Z,100437.55
2019-04-22T20:07:06.680Z,100433.14
2019-04-22T20:09:46.754Z,100430.08
2019-04-22T20:12:04.283Z,100424.81
2019-04-22T20:14:41.513Z,100421.73
2019-04-22T20:17:09.628Z,100414.63
2019-04-22T20:19:50.189Z,100426.18
2019-04-22T20:22:12.797Z,100414.66
2019-04-22T20:24:29.170Z,100421.77
2019-04-22T20:27:20.315Z,100416.02
2019-04-22T20:29:49.532Z,100420.91
2019-04-22T20:32:23.404Z,100419.59
2019-04-22T20:34:59.580Z,100422.71
2019-04-22T20:37:33.276Z,100414.32
2019-04-22T20:39:53.552Z,100409.00
2019-04-22T20:42:38.711Z,100403.69
2019-04-22T20:44:57.075Z,100409.03
2019-04-22T20:47:23.734Z,100410.80
2019-04-22T20:50:04.520Z,100404.16
2019-04-22T20:52:38.699Z,100393.53
2019-04-22T20:54:58.387Z,100389.11
2019-04-22T20:57:34.721Z,100396.19
2019-04-22T21:00:02.477Z,100389.09
2019-04-22T21:02:31.264Z,100384.69
2019-04-22T21:04:58.163Z,100384.70
2019-04-22T21:07:32.513Z,100382.02
2019-04-22T21:10:10.531Z,100371.41
2019-04-22T21:12:34.038Z,100379.83
2019-04-22T21:15:19.382Z,100377.61
2019-04-22T21:17:44.793Z,100364.34
2019-04-22T21:20:21.650Z,100368.34
2019-04-22T21:22:48.207Z,100372.31
2019-04-22T21:25:15.613Z,100362.13
2019-04-22T21:27:52.684Z,100359.94
2019-04-22T21:30:19.460Z,100356.40
2019-04-22T21:32:49.508Z,100355.52
2019-04-22T21:35:40.576Z,100353.31
2019-04-22T21:37:57.954Z,100357.74
2019-04-22T21:40:28.343Z,100358.19
2019-04-22T21:43:02.267Z,100356.41
2019-04-22T21:45:25.235Z,100350.67
2019-04-22T21:48:14.951Z,100347.58
2019-04-22T21:50:48.236Z,100347.59
2019-04-22T21:53:06.610Z,100336.95
2019-04-22T21:55:43.698Z,100334.77
2019-04-22T21:58:34.611Z,100336.54
2019-04-22T22:01:03.996Z,100332.54
2019-04-22T22:03:23.643Z,100328.11
2019-04-22T22:05:45.949Z,100319.69
2019-04-22T22:08:32.173Z,100323.22
2019-04-22T22:10:57.972Z,100317.05
2019-04-22T22:13:30.007Z,100319.25
2019-04-22T22:15:58.118Z,100322.79
2019-04-22T22:18:24.206Z,100318.36
2019-04-22T22:21:20.915Z,100318.81
2019-04-22T22:23:38.938Z,100315.27
2019-04-22T22:26:02.398Z,100312.16
2019-04-22T22:28:53.468Z,100309.52
2019-04-22T22:31:15.503Z,100313.05
2019-04-22T22:33:41.852Z,100312.59
2019-04-22T22:36:08.647Z,100314.80
2019-04-22T22:38:56.163Z,100302.86
2019-04-22T22:41:12.016Z,100301.97
2019-04-22T22:43:46.702Z,100298.89
2019-04-22T22:46:26.961Z,100293.13
2019-04-22T22:49:06.405Z,100300.63
2019-04-22T22:51:45.172Z,100295.34
2019-04-22T22:54:11.879Z,100303.73
2019-04-22T22:56:47.442Z,100292.23
2019-04-22T22:59:08.313Z,100299.30
2019-04-22T23:01:39.552Z,100294.42
2019-04-22T23:04:21.102Z,100284.25
2019-04-22T23:06:48.388Z,100280.28
2019-04-22T23:09:14.524Z,100283.83
2019-04-22T23:14:16.714Z,100275.42
2019-04-22T23:16:37.878Z,100274.53
2019-04-22T23:19:06.456Z,100271.41
2019-04-22T23:21:41.484Z,100271.42
2019-04-22T23:24:28.269Z,100268.77
2019-04-22T23:27:10.193Z,100278.02
2019-04-22T23:29:44.747Z,100269.20
2019-04-22T23:32:25.425Z,100263.87
2019-04-22T23:35:10.441Z,100263.45
2019-04-22T23:37:44.132Z,100267.42
2019-04-22T23:40:22.070Z,100256.36
2019-04-22T23:42:44.628Z,100261.66
2019-04-22T23:45:15.979Z,100262.98
2019-04-22T23:47:39.100Z,100257.22
2019-04-22T23:50:24.444Z,100248.38
2019-04-22T23:52:52.999Z,100247.52
2019-04-22T23:55:25.956Z,100243.98
2019-04-22T23:57:58.429Z,100243.09
